sensor_id;sensor_type;location;lat;lon;timestamp;temperature;humidity
4725;DHT22;2376;53.544;10.226;2024-01-11T00:01:20;-1.60;99.90
4725;DHT22;2376;53.544;10.226;2024-01-11T00:03:48;-1.60;99.90
4725;DHT22;2376;53.544;10.226;2024-01-11T00:06:14;-1.50;99.90
4725;DHT22;2376;53.544;10.226;2024-01-11T00:08:41;-1.50;99.90
4725;DHT22;2376;53.544;10.226;2024-01-11T00:11:08;-1.40;99.90
4725;DHT22;2376;53.544;10.226;2024-01-11T00:13:34;-1.50;99.90
4725;DHT22;2376;53.544;10.226;2024-01-11T00:16:01;-1.40;99.90
4725;DHT22;2376;53.544;10.226;2024-01-11T00:18:28;-1.40;99.90
4725;DHT22;2376;53.544;10.226;2024-01-11T00:20:56;-1.40;99.90
4725;DHT22;2376;53.544;10.226;2024-01-11T00:23:22;-1.40;99.90
4725;DHT22;2376;53.544;10.226;2024-01-11T00:25:49;-1.40;99.90
4725;DHT22;2376;53.544;10.226;2024-01-11T00:28:16;-1.40;99.90
4725;DHT22;2376;53.544;10.226;2024-01-11T00:30:43;-1.40;99.90
4725;DHT22;2376;53.544;10.226;2024-01-11T00:33:10;-1.40;99.90
4725;DHT22;2376;53.544;10.226;2024-01-11T00:35:36;-1.40;99.90
4725;DHT22;2376;53.544;10.226;2024-01-11T00:38:04;-1.40;99.90
4725;DHT22;2376;53.544;10.226;2024-01-11T00:40:31;-1.30;99.90
4725;DHT22;2376;53.544;10.226;2024-01-11T00:42:57;-1.40;99.90
4725;DHT22;2376;53.544;10.226;2024-01-11T00:45:24;-1.30;99.90
4725;DHT22;2376;53.544;10.226;2024-01-11T00:47:51;-1.30;99.90
4725;DHT22;2376;53.544;10.226;2024-01-11T00:50:17;-1.30;99.90
4725;DHT22;2376;53.544;10.226;2024-01-11T00:52:44;-1.30;99.90
4725;DHT22;2376;53.544;10.226;2024-01-11T00:55:12;-1.30;99.90
4725;DHT22;2376;53.544;10.226;2024-01-11T00:57:39;-1.30;99.90
4725;DHT22;2376;53.544;10.226;2024-01-11T01:00:07;-1.30;99.90
4725;DHT22;2376;53.544;10.226;2024-01-11T01:02:34;-1.30;99.90
4725;DHT22;2376;53.544;10.226;2024-01-11T01:05:00;-1.30;99.90
4725;DHT22;2376;53.544;10.226;2024-01-11T01:07:27;-1.30;99.90
4725;DHT22;2376;53.544;10.226;2024-01-11T01:09:54;-1.30;99.90
4725;DHT22;2376;53.544;10.226;2024-01-11T01:12:21;-1.30;99.90
4725;DHT22;2376;53.544;10.226;2024-01-11T01:14:47;-1.30;99.90
4725;DHT22;2376;53.544;10.226;2024-01-11T01:17:14;-1.30;99.90
4725;DHT22;2376;53.544;10.226;2024-01-11T01:19:41;-1.30;99.90
4725;DHT22;2376;53.544;10.226;2024-01-11T01:22:07;-1.30;99.90
4725;DHT22;2376;53.544;10.226;2024-01-11T01:24:34;-1.30;99.90
4725;DHT22;2376;53.544;10.226;2024-01-11T01:27:00;-1.30;99.90
4725;DHT22;2376;53.544;10.226;2024-01-11T01:29:28;-1.30;99.90
4725;DHT22;2376;53.544;10.226;2024-01-11T01:31:55;-1.30;99.90
4725;DHT22;2376;53.544;10.226;2024-01-11T01:34:22;-1.30;99.90
4725;DHT22;2376;53.544;10.226;2024-01-11T01:36:48;-1.30;99.90
4725;DHT22;2376;53.544;10.226;2024-01-11T01:39:15;-1.40;99.90
4725;DHT22;2376;53.544;10.226;2024-01-11T01:41:42;-1.30;99.90
4725;DHT22;2376;53.544;10.226;2024-01-11T01:44:08;-1.40;99.90
4725;DHT22;2376;53.544;10.226;2024-01-11T01:46:37;-1.30;99.90
4725;DHT22;2376;53.544;10.226;2024-01-11T01:49:04;-1.30;99.90
4725;DHT22;2376;53.544;10.226;2024-01-11T01:51:32;-1.30;99.90
4725;DHT22;2376;53.544;10.226;2024-01-11T01:54:00;-1.30;99.90
4725;DHT22;2376;53.544;10.226;2024-01-11T01:56:28;-1.30;99.90
4725;DHT22;2376;53.544;10.226;2024-01-11T01:58:55;-1.40;99.90
4725;DHT22;2376;53.544;10.226;2024-01-11T02:01:23;-1.30;99.90
4725;DHT22;2376;53.544;10.226;2024-01-11T02:03:52;-1.30;99.90
4725;DHT22;2376;53.544;10.226;2024-01-11T02:06:22;-1.40;99.90
4725;DHT22;2376;53.544;10.226;2024-01-11T02:08:49;-1.40;99.90
4725;DHT22;2376;53.544;10.226;2024-01-11T02:11:19;-1.40;99.90
4725;DHT22;2376;53.544;10.226;2024-01-11T02:13:46;-1.40;99.90
4725;DHT22;2376;53.544;10.226;2024-01-11T02:16:13;-1.50;99.90
4725;DHT22;2376;53.544;10.226;2024-01-11T02:18:40;-1.40;99.90
4725;DHT22;2376;53.544;10.226;2024-01-11T02:21:09;-1.40;99.90
4725;DHT22;2376;53.544;10.226;2024-01-11T02:23:43;-1.40;99.90
4725;DHT22;2376;53.544;10.226;2024-01-11T02:26:13;-1.40;99.90
4725;DHT22;2376;53.544;10.226;2024-01-11T02:28:43;-1.30;99.90
4725;DHT22;2376;53.544;10.226;2024-01-11T02:31:10;-1.40;99.90
4725;DHT22;2376;53.544;10.226;2024-01-11T02:33:38;-1.40;99.90
4725;DHT22;2376;53.544;10.226;2024-01-11T02:36:05;-1.40;99.90
4725;DHT22;2376;53.544;10.226;2024-01-11T02:38:33;-1.50;99.90
4725;DHT22;2376;53.544;10.226;2024-01-11T02:41:00;-1.50;99.90
4725;DHT22;2376;53.544;10.226;2024-01-11T02:43:28;-1.50;99.90
4725;DHT22;2376;53.544;10.226;2024-01-11T02:45:55;-1.40;99.90
4725;DHT22;2376;53.544;10.226;2024-01-11T02:48:27;-1.40;99.90
4725;DHT22;2376;53.544;10.226;2024-01-11T02:50:54;-1.40;99.90
4725;DHT22;2376;53.544;10.226;2024-01-11T02:53:21;-1.40;99.90
4725;DHT22;2376;53.544;10.226;2024-01-11T02:55:47;-1.40;99.90
4725;DHT22;2376;53.544;10.226;2024-01-11T02:58:14;-1.40;99.90
4725;DHT22;2376;53.544;10.226;2024-01-11T03:00:42;-1.50;99.90
4725;DHT22;2376;53.544;10.226;2024-01-11T03:03:09;-1.40;99.90
4725;DHT22;2376;53.544;10.226;2024-01-11T03:05:35;-1.40;99.90
4725;DHT22;2376;53.544;10.226;2024-01-11T03:08:02;-1.40;99.90
4725;DHT22;2376;53.544;10.226;2024-01-11T03:10:29;-1.40;99.90
4725;DHT22;2376;53.544;10.226;2024-01-11T03:12:57;-1.40;99.90
4725;DHT22;2376;53.544;10.226;2024-01-11T03:15:24;-1.40;99.90
4725;DHT22;2376;53.544;10.226;2024-01-11T03:17:52;-1.40;99.90
4725;DHT22;2376;53.544;10.226;2024-01-11T03:20:19;-1.30;99.90
4725;DHT22;2376;53.544;10.226;2024-01-11T03:22:50;-1.40;99.90
4725;DHT22;2376;53.544;10.226;2024-01-11T03:25:17;-1.50;99.90
4725;DHT22;2376;53.544;10.226;2024-01-11T03:27:43;-1.40;99.90
4725;DHT22;2376;53.544;10.226;2024-01-11T03:30:11;-1.50;99.90
4725;DHT22;2376;53.544;10.226;2024-01-11T03:32:37;-1.60;99.90
4725;DHT22;2376;53.544;10.226;2024-01-11T03:35:07;-1.50;99.90
4725;DHT22;2376;53.544;10.226;2024-01-11T03:37:34;-1.50;99.90
4725;DHT22;2376;53.544;10.226;2024-01-11T03:40:01;-1.40;99.90
4725;DHT22;2376;53.544;10.226;2024-01-11T03:42:28;-1.40;99.90
4725;DHT22;2376;53.544;10.226;2024-01-11T03:44:55;-1.40;99.90
4725;DHT22;2376;53.544;10.226;2024-01-11T03:47:22;-1.30;99.90
4725;DHT22;2376;53.544;10.226;2024-01-11T03:49:48;-1.20;99.90
4725;DHT22;2376;53.544;10.226;2024-01-11T03:52:17;-1.20;99.90
4725;DHT22;2376;53.544;10.226;2024-01-11T03:54:43;-1.30;99.90
4725;DHT22;2376;53.544;10.226;2024-01-11T03:57:10;-1.30;99.90
4725;DHT22;2376;53.544;10.226;2024-01-11T03:59:36;-1.30;99.90
4725;DHT22;2376;53.544;10.226;2024-01-11T04:02:03;-1.30;99.90
4725;DHT22;2376;53.544;10.226;2024-01-11T04:04:30;-1.30;99.90
4725;DHT22;2376;53.544;10.226;2024-01-11T04:06:57;-1.20;99.90
4725;DHT22;2376;53.544;10.226;2024-01-11T04:09:25;-1.30;99.90
4725;DHT22;2376;53.544;10.226;2024-01-11T04:11:52;-1.20;99.90
4725;DHT22;2376;53.544;10.226;2024-01-11T04:14:18;-1.20;99.90
4725;DHT22;2376;53.544;10.226;2024-01-11T04:16:45;-1.20;99.90
4725;DHT22;2376;53.544;10.226;2024-01-11T04:19:12;-1.30;99.90
4725;DHT22;2376;53.544;10.226;2024-01-11T04:21:39;-1.20;99.90
4725;DHT22;2376;53.544;10.226;2024-01-11T04:24:06;-1.20;99.90
4725;DHT22;2376;53.544;10.226;2024-01-11T04:26:34;-1.20;99.90
4725;DHT22;2376;53.544;10.226;2024-01-11T04:29:01;-1.20;99.90
4725;DHT22;2376;53.544;10.226;2024-01-11T04:31:27;-1.20;99.90
4725;DHT22;2376;53.544;10.226;2024-01-11T04:33:54;-1.20;99.90
4725;DHT22;2376;53.544;10.226;2024-01-11T04:36:21;-1.30;99.90
4725;DHT22;2376;53.544;10.226;2024-01-11T04:38:48;-1.40;99.90
4725;DHT22;2376;53.544;10.226;2024-01-11T04:41:15;-1.30;99.90
4725;DHT22;2376;53.544;10.226;2024-01-11T04:43:44;-1.30;99.90
4725;DHT22;2376;53.544;10.226;2024-01-11T04:46:15;-1.20;99.90
4725;DHT22;2376;53.544;10.226;2024-01-11T04:48:42;-1.20;99.90
4725;DHT22;2376;53.544;10.226;2024-01-11T04:51:09;-1.20;99.90
4725;DHT22;2376;53.544;10.226;2024-01-11T04:53:37;-1.20;99.90
4725;DHT22;2376;53.544;10.226;2024-01-11T04:56:04;-1.30;99.90
4725;DHT22;2376;53.544;10.226;2024-01-11T04:58:31;-1.30;99.90
4725;DHT22;2376;53.544;10.226;2024-01-11T05:01:00;-1.30;99.90
4725;DHT22;2376;53.544;10.226;2024-01-11T05:03:28;-1.20;99.90
4725;DHT22;2376;53.544;10.226;2024-01-11T05:05:55;-1.40;99.90
4725;DHT22;2376;53.544;10.226;2024-01-11T05:08:22;-1.50;99.90
4725;DHT22;2376;53.544;10.226;2024-01-11T05:10:49;-1.60;99.90
4725;DHT22;2376;53.544;10.226;2024-01-11T05:13:16;-1.50;99.90
4725;DHT22;2376;53.544;10.226;2024-01-11T05:15:43;-1.40;99.90
4725;DHT22;2376;53.544;10.226;2024-01-11T05:18:11;-1.50;99.90
4725;DHT22;2376;53.544;10.226;2024-01-11T05:20:38;-1.40;99.90
4725;DHT22;2376;53.544;10.226;2024-01-11T05:23:05;-1.50;99.90
4725;DHT22;2376;53.544;10.226;2024-01-11T05:25:31;-1.40;99.90
4725;DHT22;2376;53.544;10.226;2024-01-11T05:27:59;-1.40;99.90
4725;DHT22;2376;53.544;10.226;2024-01-11T05:30:26;-1.40;99.90
4725;DHT22;2376;53.544;10.226;2024-01-11T05:32:52;-1.40;99.90
4725;DHT22;2376;53.544;10.226;2024-01-11T05:35:20;-1.40;99.90
4725;DHT22;2376;53.544;10.226;2024-01-11T05:37:47;-1.40;99.90
4725;DHT22;2376;53.544;10.226;2024-01-11T05:40:14;-1.40;99.90
4725;DHT22;2376;53.544;10.226;2024-01-11T05:42:41;-1.40;99.90
4725;DHT22;2376;53.544;10.226;2024-01-11T05:45:08;-1.30;99.90
4725;DHT22;2376;53.544;10.226;2024-01-11T05:47:34;-1.20;99.90
4725;DHT22;2376;53.544;10.226;2024-01-11T05:50:02;-1.30;99.90
4725;DHT22;2376;53.544;10.226;2024-01-11T05:52:30;-1.30;99.90
4725;DHT22;2376;53.544;10.226;2024-01-11T05:54:57;-1.30;99.90
4725;DHT22;2376;53.544;10.226;2024-01-11T05:57:24;-1.20;99.90
4725;DHT22;2376;53.544;10.226;2024-01-11T05:59:50;-1.20;99.90
4725;DHT22;2376;53.544;10.226;2024-01-11T06:02:17;-1.20;99.90
4725;DHT22;2376;53.544;10.226;2024-01-11T06:04:44;-1.10;99.90
4725;DHT22;2376;53.544;10.226;2024-01-11T06:07:12;-1.10;99.90
4725;DHT22;2376;53.544;10.226;2024-01-11T06:09:41;-1.10;99.90
4725;DHT22;2376;53.544;10.226;2024-01-11T06:12:08;-1.00;99.90
4725;DHT22;2376;53.544;10.226;2024-01-11T06:14:34;-1.00;99.90
4725;DHT22;2376;53.544;10.226;2024-01-11T06:17:01;-1.10;99.90
4725;DHT22;2376;53.544;10.226;2024-01-11T06:19:28;-1.10;99.90
4725;DHT22;2376;53.544;10.226;2024-01-11T06:21:54;-1.20;99.90
4725;DHT22;2376;53.544;10.226;2024-01-11T06:24:21;-1.20;99.90
4725;DHT22;2376;53.544;10.226;2024-01-11T06:26:49;-1.30;99.90
4725;DHT22;2376;53.544;10.226;2024-01-11T06:29:16;-1.20;99.90
4725;DHT22;2376;53.544;10.226;2024-01-11T06:31:42;-1.20;99.90
4725;DHT22;2376;53.544;10.226;2024-01-11T06:34:09;-1.20;99.90
4725;DHT22;2376;53.544;10.226;2024-01-11T06:36:35;-1.20;99.90
4725;DHT22;2376;53.544;10.226;2024-01-11T06:39:02;-1.10;99.90
4725;DHT22;2376;53.544;10.226;2024-01-11T06:41:29;-1.20;99.90
4725;DHT22;2376;53.544;10.226;2024-01-11T06:43:57;-1.20;99.90
4725;DHT22;2376;53.544;10.226;2024-01-11T06:46:24;-1.20;99.90
4725;DHT22;2376;53.544;10.226;2024-01-11T06:48:50;-1.20;99.90
4725;DHT22;2376;53.544;10.226;2024-01-11T06:51:20;-1.20;99.90
4725;DHT22;2376;53.544;10.226;2024-01-11T06:53:47;-1.20;99.90
4725;DHT22;2376;53.544;10.226;2024-01-11T06:56:15;-1.30;99.90
4725;DHT22;2376;53.544;10.226;2024-01-11T06:58:42;-1.30;99.90
4725;DHT22;2376;53.544;10.226;2024-01-11T07:01:10;-1.20;99.90
4725;DHT22;2376;53.544;10.226;2024-01-11T07:03:37;-1.20;99.90
4725;DHT22;2376;53.544;10.226;2024-01-11T07:06:04;-1.20;99.90
4725;DHT22;2376;53.544;10.226;2024-01-11T07:08:31;-1.20;99.90
4725;DHT22;2376;53.544;10.226;2024-01-11T07:11:00;-1.20;99.90
4725;DHT22;2376;53.544;10.226;2024-01-11T07:13:27;-1.30;99.90
4725;DHT22;2376;53.544;10.226;2024-01-11T07:15:54;-1.20;99.90
4725;DHT22;2376;53.544;10.226;2024-01-11T07:18:22;-1.10;99.90
4725;DHT22;2376;53.544;10.226;2024-01-11T07:20:49;-1.10;99.90
4725;DHT22;2376;53.544;10.226;2024-01-11T07:23:16;-1.10;99.90
4725;DHT22;2376;53.544;10.226;2024-01-11T07:25:43;-1.20;99.90
4725;DHT22;2376;53.544;10.226;2024-01-11T07:28:10;-1.20;99.90
4725;DHT22;2376;53.544;10.226;2024-01-11T07:30:36;-1.20;99.90
4725;DHT22;2376;53.544;10.226;2024-01-11T07:33:03;-1.20;99.90
4725;DHT22;2376;53.544;10.226;2024-01-11T07:35:31;-1.20;99.90
4725;DHT22;2376;53.544;10.226;2024-01-11T07:37:58;-1.10;99.90
4725;DHT22;2376;53.544;10.226;2024-01-11T07:40:25;-1.10;99.90
4725;DHT22;2376;53.544;10.226;2024-01-11T07:42:51;-1.00;99.90
4725;DHT22;2376;53.544;10.226;2024-01-11T07:45:18;-1.00;99.90
4725;DHT22;2376;53.544;10.226;2024-01-11T07:47:45;-1.00;99.90
4725;DHT22;2376;53.544;10.226;2024-01-11T07:50:12;-1.00;99.90
4725;DHT22;2376;53.544;10.226;2024-01-11T07:52:40;-0.90;99.90
4725;DHT22;2376;53.544;10.226;2024-01-11T07:55:09;-0.90;99.90
4725;DHT22;2376;53.544;10.226;2024-01-11T07:57:38;-1.00;99.90
4725;DHT22;2376;53.544;10.226;2024-01-11T08:00:06;-1.00;99.90
4725;DHT22;2376;53.544;10.226;2024-01-11T08:02:33;-1.00;99.90
4725;DHT22;2376;53.544;10.226;2024-01-11T08:04:59;-0.90;99.90
4725;DHT22;2376;53.544;10.226;2024-01-11T08:07:26;-0.80;99.90
4725;DHT22;2376;53.544;10.226;2024-01-11T08:09:54;-0.80;99.90
4725;DHT22;2376;53.544;10.226;2024-01-11T08:12:21;-0.70;99.90
4725;DHT22;2376;53.544;10.226;2024-01-11T08:14:48;-0.70;99.90
4725;DHT22;2376;53.544;10.226;2024-01-11T08:17:15;-0.70;99.90
4725;DHT22;2376;53.544;10.226;2024-01-11T08:19:42;-0.60;99.90
4725;DHT22;2376;53.544;10.226;2024-01-11T08:22:09;-0.60;99.90
4725;DHT22;2376;53.544;10.226;2024-01-11T08:24:36;-0.60;99.90
4725;DHT22;2376;53.544;10.226;2024-01-11T08:27:04;-0.50;99.90
4725;DHT22;2376;53.544;10.226;2024-01-11T08:29:31;-0.50;99.90
4725;DHT22;2376;53.544;10.226;2024-01-11T08:31:58;-0.50;99.90
4725;DHT22;2376;53.544;10.226;2024-01-11T08:34:26;-0.50;99.90
4725;DHT22;2376;53.544;10.226;2024-01-11T08:36:53;-0.50;99.90
4725;DHT22;2376;53.544;10.226;2024-01-11T08:39:19;-0.50;99.90
4725;DHT22;2376;53.544;10.226;2024-01-11T08:41:47;-0.50;99.90
4725;DHT22;2376;53.544;10.226;2024-01-11T08:44:15;-0.50;99.90
4725;DHT22;2376;53.544;10.226;2024-01-11T08:46:42;-0.40;99.90
4725;DHT22;2376;53.544;10.226;2024-01-11T08:49:09;-0.40;99.90
4725;DHT22;2376;53.544;10.226;2024-01-11T08:51:36;-0.30;99.90
4725;DHT22;2376;53.544;10.226;2024-01-11T08:54:02;-0.30;99.90
4725;DHT22;2376;53.544;10.226;2024-01-11T08:56:29;-0.20;99.90
4725;DHT22;2376;53.544;10.226;2024-01-11T08:58:56;-0.20;99.90
4725;DHT22;2376;53.544;10.226;2024-01-11T09:01:25;-0.20;99.90
4725;DHT22;2376;53.544;10.226;2024-01-11T09:03:52;-0.20;99.90
4725;DHT22;2376;53.544;10.226;2024-01-11T09:06:18;-0.20;99.90
4725;DHT22;2376;53.544;10.226;2024-01-11T09:08:45;-0.10;99.90
4725;DHT22;2376;53.544;10.226;2024-01-11T09:11:12;-0.10;99.90
4725;DHT22;2376;53.544;10.226;2024-01-11T09:13:39;-0.10;99.90
4725;DHT22;2376;53.544;10.226;2024-01-11T09:16:06;0.00;99.90
4725;DHT22;2376;53.544;10.226;2024-01-11T09:18:36;0.00;99.90
4725;DHT22;2376;53.544;10.226;2024-01-11T09:21:03;0.10;99.90
4725;DHT22;2376;53.544;10.226;2024-01-11T09:23:30;0.00;99.90
4725;DHT22;2376;53.544;10.226;2024-01-11T09:25:56;0.10;99.90
4725;DHT22;2376;53.544;10.226;2024-01-11T09:28:23;0.10;99.90
4725;DHT22;2376;53.544;10.226;2024-01-11T09:30:50;0.10;99.90
4725;DHT22;2376;53.544;10.226;2024-01-11T09:33:16;0.20;99.90
4725;DHT22;2376;53.544;10.226;2024-01-11T09:35:44;0.20;99.90
4725;DHT22;2376;53.544;10.226;2024-01-11T09:38:11;0.20;99.90
4725;DHT22;2376;53.544;10.226;2024-01-11T09:40:38;0.30;99.90
4725;DHT22;2376;53.544;10.226;2024-01-11T09:43:04;0.30;99.90
4725;DHT22;2376;53.544;10.226;2024-01-11T09:45:33;0.30;99.90
4725;DHT22;2376;53.544;10.226;2024-01-11T09:48:00;0.30;99.90
4725;DHT22;2376;53.544;10.226;2024-01-11T09:50:28;0.40;99.90
4725;DHT22;2376;53.544;10.226;2024-01-11T09:52:57;0.40;99.90
4725;DHT22;2376;53.544;10.226;2024-01-11T09:55:24;0.40;99.90
4725;DHT22;2376;53.544;10.226;2024-01-11T09:57:53;0.50;99.90
4725;DHT22;2376;53.544;10.226;2024-01-11T10:00:22;0.50;99.90
4725;DHT22;2376;53.544;10.226;2024-01-11T10:02:49;0.60;99.90
4725;DHT22;2376;53.544;10.226;2024-01-11T10:05:17;0.60;99.90
4725;DHT22;2376;53.544;10.226;2024-01-11T10:07:44;0.60;99.90
4725;DHT22;2376;53.544;10.226;2024-01-11T10:10:13;0.60;99.90
4725;DHT22;2376;53.544;10.226;2024-01-11T10:12:41;0.60;99.90
4725;DHT22;2376;53.544;10.226;2024-01-11T10:15:09;0.60;99.90
4725;DHT22;2376;53.544;10.226;2024-01-11T10:17:36;0.60;99.90
4725;DHT22;2376;53.544;10.226;2024-01-11T10:20:04;0.60;99.90
4725;DHT22;2376;53.544;10.226;2024-01-11T10:22:31;0.70;99.90
4725;DHT22;2376;53.544;10.226;2024-01-11T10:25:08;0.70;99.90
4725;DHT22;2376;53.544;10.226;2024-01-11T10:27:38;0.70;99.90
4725;DHT22;2376;53.544;10.226;2024-01-11T10:30:05;0.70;99.90
4725;DHT22;2376;53.544;10.226;2024-01-11T10:32:33;0.70;99.90
4725;DHT22;2376;53.544;10.226;2024-01-11T10:35:00;0.70;99.90
4725;DHT22;2376;53.544;10.226;2024-01-11T10:37:30;0.80;99.90
4725;DHT22;2376;53.544;10.226;2024-01-11T10:39:58;0.80;99.90
4725;DHT22;2376;53.544;10.226;2024-01-11T10:42:27;0.80;99.90
4725;DHT22;2376;53.544;10.226;2024-01-11T10:44:59;0.80;99.90
4725;DHT22;2376;53.544;10.226;2024-01-11T10:47:30;0.90;99.90
4725;DHT22;2376;53.544;10.226;2024-01-11T10:49:59;0.90;99.90
4725;DHT22;2376;53.544;10.226;2024-01-11T10:52:31;0.90;99.90
4725;DHT22;2376;53.544;10.226;2024-01-11T10:55:03;0.90;99.90
4725;DHT22;2376;53.544;10.226;2024-01-11T10:57:32;1.00;99.90
4725;DHT22;2376;53.544;10.226;2024-01-11T11:00:01;1.00;99.90
4725;DHT22;2376;53.544;10.226;2024-01-11T11:02:32;1.00;99.90
4725;DHT22;2376;53.544;10.226;2024-01-11T11:05:02;1.00;99.90
4725;DHT22;2376;53.544;10.226;2024-01-11T11:07:30;1.00;99.90
4725;DHT22;2376;53.544;10.226;2024-01-11T11:09:57;1.10;99.90
4725;DHT22;2376;53.544;10.226;2024-01-11T11:12:25;1.10;99.90
4725;DHT22;2376;53.544;10.226;2024-01-11T11:14:53;1.10;99.90
4725;DHT22;2376;53.544;10.226;2024-01-11T11:17:22;1.10;99.90
4725;DHT22;2376;53.544;10.226;2024-01-11T11:19:48;1.20;99.90
4725;DHT22;2376;53.544;10.226;2024-01-11T11:22:16;1.20;99.90
4725;DHT22;2376;53.544;10.226;2024-01-11T11:24:44;1.20;99.90
4725;DHT22;2376;53.544;10.226;2024-01-11T11:27:13;1.20;99.90
4725;DHT22;2376;53.544;10.226;2024-01-11T11:29:41;1.20;99.90
4725;DHT22;2376;53.544;10.226;2024-01-11T11:32:10;1.20;99.90
4725;DHT22;2376;53.544;10.226;2024-01-11T11:34:41;1.20;99.90
4725;DHT22;2376;53.544;10.226;2024-01-11T11:37:09;1.20;99.90
4725;DHT22;2376;53.544;10.226;2024-01-11T11:39:41;1.20;99.90
4725;DHT22;2376;53.544;10.226;2024-01-11T11:42:09;1.20;99.90
4725;DHT22;2376;53.544;10.226;2024-01-11T11:44:36;1.30;99.90
4725;DHT22;2376;53.544;10.226;2024-01-11T11:47:19;1.30;99.90
4725;DHT22;2376;53.544;10.226;2024-01-11T11:49:57;1.40;99.90
4725;DHT22;2376;53.544;10.226;2024-01-11T11:52:25;1.40;99.90
4725;DHT22;2376;53.544;10.226;2024-01-11T11:54:53;1.40;99.90
4725;DHT22;2376;53.544;10.226;2024-01-11T11:57:20;1.40;99.90
4725;DHT22;2376;53.544;10.226;2024-01-11T11:59:48;1.50;99.90
4725;DHT22;2376;53.544;10.226;2024-01-11T12:02:17;1.50;99.90
4725;DHT22;2376;53.544;10.226;2024-01-11T12:04:46;1.50;99.90
4725;DHT22;2376;53.544;10.226;2024-01-11T12:07:15;1.50;99.90
4725;DHT22;2376;53.544;10.226;2024-01-11T12:09:42;1.50;99.90
4725;DHT22;2376;53.544;10.226;2024-01-11T12:12:09;1.50;99.90
4725;DHT22;2376;53.544;10.226;2024-01-11T12:14:36;1.50;99.90
4725;DHT22;2376;53.544;10.226;2024-01-11T12:17:03;1.60;99.90
4725;DHT22;2376;53.544;10.226;2024-01-11T12:19:30;1.50;99.90
4725;DHT22;2376;53.544;10.226;2024-01-11T12:21:57;1.50;99.90
4725;DHT22;2376;53.544;10.226;2024-01-11T12:24:25;1.60;99.90
4725;DHT22;2376;53.544;10.226;2024-01-11T12:26:52;1.50;99.90
4725;DHT22;2376;53.544;10.226;2024-01-11T12:29:20;1.60;99.90
4725;DHT22;2376;53.544;10.226;2024-01-11T12:31:47;1.60;99.90
4725;DHT22;2376;53.544;10.226;2024-01-11T12:34:14;1.60;99.90
4725;DHT22;2376;53.544;10.226;2024-01-11T12:36:42;1.70;99.90
4725;DHT22;2376;53.544;10.226;2024-01-11T12:39:10;1.70;99.90
4725;DHT22;2376;53.544;10.226;2024-01-11T12:41:40;1.70;99.90
4725;DHT22;2376;53.544;10.226;2024-01-11T12:44:07;1.80;99.90
4725;DHT22;2376;53.544;10.226;2024-01-11T12:46:33;1.80;99.90
4725;DHT22;2376;53.544;10.226;2024-01-11T12:49:00;1.80;99.90
4725;DHT22;2376;53.544;10.226;2024-01-11T12:51:27;1.80;99.90
4725;DHT22;2376;53.544;10.226;2024-01-11T12:53:53;1.80;99.90
4725;DHT22;2376;53.544;10.226;2024-01-11T12:56:20;1.90;99.90
4725;DHT22;2376;53.544;10.226;2024-01-11T12:58:49;1.90;99.90
4725;DHT22;2376;53.544;10.226;2024-01-11T13:01:16;1.90;99.90
4725;DHT22;2376;53.544;10.226;2024-01-11T13:03:44;1.90;99.90
4725;DHT22;2376;53.544;10.226;2024-01-11T13:06:12;1.90;99.90
4725;DHT22;2376;53.544;10.226;2024-01-11T13:08:39;1.90;99.90
4725;DHT22;2376;53.544;10.226;2024-01-11T13:11:07;1.90;99.90
4725;DHT22;2376;53.544;10.226;2024-01-11T13:13:34;2.00;99.90
4725;DHT22;2376;53.544;10.226;2024-01-11T13:16:02;1.90;99.90
4725;DHT22;2376;53.544;10.226;2024-01-11T13:18:31;2.00;99.90
4725;DHT22;2376;53.544;10.226;2024-01-11T13:20:58;2.00;99.90
4725;DHT22;2376;53.544;10.226;2024-01-11T13:23:25;2.10;99.90
4725;DHT22;2376;53.544;10.226;2024-01-11T13:25:51;2.10;99.90
4725;DHT22;2376;53.544;10.226;2024-01-11T13:28:18;2.00;99.90
4725;DHT22;2376;53.544;10.226;2024-01-11T13:30:45;2.00;99.90
4725;DHT22;2376;53.544;10.226;2024-01-11T13:33:15;2.00;99.90
4725;DHT22;2376;53.544;10.226;2024-01-11T13:35:43;2.00;99.90
4725;DHT22;2376;53.544;10.226;2024-01-11T13:38:10;2.10;99.90
4725;DHT22;2376;53.544;10.226;2024-01-11T13:40:37;2.10;99.90
4725;DHT22;2376;53.544;10.226;2024-01-11T13:43:05;2.10;99.90
4725;DHT22;2376;53.544;10.226;2024-01-11T13:45:32;2.20;99.90
4725;DHT22;2376;53.544;10.226;2024-01-11T13:48:02;2.20;99.90
4725;DHT22;2376;53.544;10.226;2024-01-11T13:50:30;2.00;99.90
4725;DHT22;2376;53.544;10.226;2024-01-11T13:52:57;2.10;99.90
4725;DHT22;2376;53.544;10.226;2024-01-11T13:55:24;2.10;99.90
4725;DHT22;2376;53.544;10.226;2024-01-11T13:57:51;2.20;99.90
4725;DHT22;2376;53.544;10.226;2024-01-11T14:00:19;2.20;99.90
4725;DHT22;2376;53.544;10.226;2024-01-11T14:02:46;2.10;99.90
4725;DHT22;2376;53.544;10.226;2024-01-11T14:05:14;2.20;99.90
4725;DHT22;2376;53.544;10.226;2024-01-11T14:07:44;2.20;99.90
4725;DHT22;2376;53.544;10.226;2024-01-11T14:10:12;2.20;99.90
4725;DHT22;2376;53.544;10.226;2024-01-11T14:12:39;2.10;99.90
4725;DHT22;2376;53.544;10.226;2024-01-11T14:15:07;2.10;99.90
4725;DHT22;2376;53.544;10.226;2024-01-11T14:17:37;2.10;99.90
4725;DHT22;2376;53.544;10.226;2024-01-11T14:20:04;2.20;99.90
4725;DHT22;2376;53.544;10.226;2024-01-11T14:22:35;2.10;99.90
4725;DHT22;2376;53.544;10.226;2024-01-11T14:25:03;2.10;99.90
4725;DHT22;2376;53.544;10.226;2024-01-11T14:27:30;2.20;99.90
4725;DHT22;2376;53.544;10.226;2024-01-11T14:29:57;2.20;99.90
4725;DHT22;2376;53.544;10.226;2024-01-11T14:32:24;2.20;99.90
4725;DHT22;2376;53.544;10.226;2024-01-11T14:34:52;2.20;99.90
4725;DHT22;2376;53.544;10.226;2024-01-11T14:37:18;2.20;99.90
4725;DHT22;2376;53.544;10.226;2024-01-11T14:39:45;2.30;99.90
4725;DHT22;2376;53.544;10.226;2024-01-11T14:42:13;2.20;99.90
4725;DHT22;2376;53.544;10.226;2024-01-11T14:44:40;2.20;99.90
4725;DHT22;2376;53.544;10.226;2024-01-11T14:47:06;2.10;99.90
4725;DHT22;2376;53.544;10.226;2024-01-11T14:49:33;2.10;99.90
4725;DHT22;2376;53.544;10.226;2024-01-11T14:52:00;2.20;99.90
4725;DHT22;2376;53.544;10.226;2024-01-11T14:54:26;2.10;99.90
4725;DHT22;2376;53.544;10.226;2024-01-11T14:56:53;2.20;99.90
4725;DHT22;2376;53.544;10.226;2024-01-11T14:59:21;2.20;99.90
4725;DHT22;2376;53.544;10.226;2024-01-11T15:01:48;2.30;99.90
4725;DHT22;2376;53.544;10.226;2024-01-11T15:04:14;2.20;99.90
4725;DHT22;2376;53.544;10.226;2024-01-11T15:06:41;2.30;99.90
4725;DHT22;2376;53.544;10.226;2024-01-11T15:09:08;2.20;99.90
4725;DHT22;2376;53.544;10.226;2024-01-11T15:11:37;2.10;99.90
4725;DHT22;2376;53.544;10.226;2024-01-11T15:14:05;2.20;99.90
4725;DHT22;2376;53.544;10.226;2024-01-11T15:16:33;2.20;99.90
4725;DHT22;2376;53.544;10.226;2024-01-11T15:19:00;2.30;99.90
4725;DHT22;2376;53.544;10.226;2024-01-11T15:21:26;2.30;99.90
4725;DHT22;2376;53.544;10.226;2024-01-11T15:23:53;2.20;99.90
4725;DHT22;2376;53.544;10.226;2024-01-11T15:26:20;2.10;99.90
4725;DHT22;2376;53.544;10.226;2024-01-11T15:28:47;2.10;99.90
4725;DHT22;2376;53.544;10.226;2024-01-11T15:31:13;2.20;99.90
4725;DHT22;2376;53.544;10.226;2024-01-11T15:33:42;2.10;99.90
4725;DHT22;2376;53.544;10.226;2024-01-11T15:36:08;2.10;99.90
4725;DHT22;2376;53.544;10.226;2024-01-11T15:38:35;2.00;99.90
4725;DHT22;2376;53.544;10.226;2024-01-11T15:41:02;2.00;99.90
4725;DHT22;2376;53.544;10.226;2024-01-11T15:43:30;2.00;99.90
4725;DHT22;2376;53.544;10.226;2024-01-11T15:45:57;2.00;99.90
4725;DHT22;2376;53.544;10.226;2024-01-11T15:48:23;2.00;99.90
4725;DHT22;2376;53.544;10.226;2024-01-11T15:50:52;2.00;99.90
4725;DHT22;2376;53.544;10.226;2024-01-11T15:53:20;2.10;99.90